Accueil
METAR-TAF:

METAR-TAF

Aéroports :

Aéroport de Reggio de Calabre

Reggio de Calabre, Italie

latitude: 38-04N, longitude: 015-39E, altitude: 11 m

Observation

Le bulletin a été fait il y a 42 minutes, à 23:50 UTC
Vent 5 kt de sud-est
Température 26°C
Humidité 58%
Pression 1015 hPa
Visibilité 10 km ou plus

METAR: LICR 032350Z AUTO 13005KT 9999 NCD 26/17 Q1015

Heure: 02:32 (00:32 UTC)

Prévision

Le bulletin a été fait il y a 1 heure et 32 minutes, à 23:00 UTC
Prévision valable du 04 à 00 UTC au 04 à 24 UTC
Vent 12 kt de sud
Visibilité 10 km ou plus
Quelques nuages à une hauteur de 3000 ft
Evoluant progressivement
du 04 à 17 UTC au 04 à 19 UTC
Vent 5 kt de direction variable

TAF: LICR 032300Z 0400/0424 18012KT 9999 FEW030 BECMG 0417/0419 VRB05KT

Observations et prévisions météorologiques de plus de 4000 aéroports (messages METAR et TAF).

Les stations disponibles sont représentées par des disques jaunes et rouges sur la carte.

Passer la souris dessus pour voir le nom de la station.

Cliquer dessus pour voir les observations et prévisions météorologiques.

Pour changer de carte: cliquez sur les boutons verts avec une croix noire pour zoomer, sur le bouton vert avec un tiret pour effectuer un zoom arrière, ou sur les flèches vertes pour les cartes adjacentes.


METAR-TAF: